Altus, OK

4:39 AM CST on February 07, 2016 (GMT -0600)
Altus Air Force Base | | Change Station
CLOSE
Current Station
Airport
Location: Altus AFB,
Elevation: 1378 ft
Nearby Weather Stations

Elev 1378 ft 34.67 °N, 99.27 °W | Updated 41 minutes ago

Clear
Clear
24 °F
Feels Like 17 °F
N
6
Wind Variable Wind from ENE

Today
High -- | Low -- °F
--% Chance of Precip.
Yesterday
High -- | Low -- °F
Precip. -- in
Pressure 30.17 in
Visibility 10.0 miles
Clouds Clear
Windchill 17 °F
Dew Point 20 °F
Humidity 84%
Rainfall 0.00 in
Snow Depth Not available.
7:30 AM 6:12 PM
Waning Crescent, 2% visible
METAR KLTS 070958Z AUTO 06005KT 10SM CLR M05/M07 A3015 RMK AO2 SLP217 T10461069
Pressure 30.17 in
Visibility 10.0 miles
Clouds Clear
Windchill 17 °F
Dew Point 20 °F
Humidity 84%
Rainfall 0.00 in
Snow Depth Not available.
7:30 AM 6:12 PM
Waning Crescent, 2% visible
METAR KLTS 070958Z AUTO 06005KT 10SM CLR M05/M07 A3015 RMK AO2 SLP217 T10461069

10-Day Weather Forecast

Almanac

Astronomy

Feb. 07, 2016 Rise Set
Actual Time
Civil Twilight
Nautical Twilight
Astronomical Twilight
Moon
Length of Visible Light
Length of Day
Tomorrow will be .
, % of the Moon is Illuminated

Today's Extremes

State Highs State Lows

Community

WunderPhotos

Upload Photos

1,891,171 photos uploaded!

WunderBlog® & News

Nearby

Air Quality

  Air Quality AQ Index Pollutant
Not available.

Snow Depth

Station Depth Elevation

Earthquake Activity

City Distance Mag. Time & Date
Minimum magnitude displayed is 2.5.

Coastal Water Temperatures

Place Temperature

Stations

Nearby Weather Stations

Station Location Temp. Windchill Dew Point Humidity Wind Precip. Elev Updated Type
                   

Watches & Warnings

There are currently no watches in effect.